Time;durP1;ratioP1;P1;durP2;ratioP2;P2;SDS_P1;SDS_P2;PMS_P1;PMS_P2;Temp;Humidity;BMP_temperature;BMP_pressure;BME280_temperature;BME280_humidity;BME280_pressure;Samples;Min_cycle;Max_cycle;Signal;HPM_P1;HPM_P2
2023/04/12 00:02:10;;;;;;;4.18;2.28;;;6.50;99.90;;;;;;5012065;28;20056;-66
2023/04/12 00:04:35;;;;;;;9.35;2.45;;;6.60;99.90;;;;;;5021353;28;20101;-66
2023/04/12 00:07:01;;;;;;;9.32;2.70;;;6.60;99.90;;;;;;4993792;28;20033;-65
2023/04/12 00:09:30;;;;;;;6.35;2.13;;;6.60;99.90;;;;;;5011153;28;20038;-66
2023/04/12 00:12:00;;;;;;;5.93;2.28;;;6.60;99.90;;;;;;5010816;28;20041;-66
2023/04/12 00:14:26;;;;;;;8.68;2.63;;;6.60;99.90;;;;;;5005006;28;20042;-65
2023/04/12 00:16:51;;;;;;;5.18;2.35;;;6.70;99.90;;;;;;5010430;28;20596;-65
2023/04/12 00:19:17;;;;;;;7.53;1.77;;;6.70;99.90;;;;;;5011632;28;20038;-65
2023/04/12 00:21:43;;;;;;;7.97;1.98;;;6.70;99.90;;;;;;5008581;28;20684;-65
2023/04/12 00:24:09;;;;;;;6.13;2.50;;;6.70;99.90;;;;;;5008073;28;20083;-66
2023/04/12 00:26:34;;;;;;;11.85;2.53;;;6.70;99.90;;;;;;5009231;28;20033;-64
2023/04/12 00:29:00;;;;;;;10.07;2.83;;;6.70;99.90;;;;;;5000685;28;20037;-66
2023/04/12 00:31:26;;;;;;;12.52;2.90;;;6.70;99.90;;;;;;5001615;28;20041;-65
2023/04/12 00:33:51;;;;;;;8.55;2.40;;;6.70;99.90;;;;;;4997163;28;20034;-66
2023/04/12 00:36:17;;;;;;;8.95;2.13;;;6.80;99.90;;;;;;5000619;28;20133;-64
2023/04/12 00:38:44;;;;;;;6.35;2.30;;;6.80;99.90;;;;;;4997267;28;20080;-64
2023/04/12 00:41:11;;;;;;;9.75;2.40;;;6.80;99.90;;;;;;5017600;28;20050;-64
2023/04/12 00:43:36;;;;;;;7.95;2.40;;;6.80;99.90;;;;;;5016445;28;20092;-65
2023/04/12 00:46:02;;;;;;;8.32;2.28;;;6.90;99.90;;;;;;5005291;28;20448;-65
2023/04/12 00:48:29;;;;;;;9.15;2.28;;;6.90;99.90;;;;;;4994377;28;20034;-64
2023/04/12 00:50:56;;;;;;;9.43;2.63;;;6.90;99.90;;;;;;5008906;28;20041;-66
2023/04/12 00:53:22;;;;;;;5.15;2.40;;;6.90;99.90;;;;;;5011884;28;20064;-65
2023/04/12 00:55:50;;;;;;;6.05;2.58;;;7.00;99.90;;;;;;5009847;28;20120;-66
2023/04/12 00:58:16;;;;;;;9.00;2.35;;;7.00;99.90;;;;;;5012704;28;20501;-65
2023/04/12 01:00:49;;;;;;;6.38;2.13;;;7.00;99.90;;;;;;5008963;28;20069;-65
2023/04/12 01:03:21;;;;;;;6.45;2.17;;;7.00;99.90;;;;;;5002512;28;20088;-67
2023/04/12 01:06:28;;;;;;;4.93;2.40;;;7.00;99.90;;;;;;5008154;28;20120;-65
2023/04/12 01:09:02;;;;;;;11.10;3.00;;;7.10;99.90;;;;;;4990019;28;20052;-67
2023/04/12 01:11:44;;;;;;;8.70;2.10;;;7.10;99.90;;;;;;5017611;28;20037;-65
2023/04/12 01:14:15;;;;;;;5.93;2.00;;;7.10;99.90;;;;;;5008065;28;20052;-66
2023/04/12 01:16:49;;;;;;;8.07;2.38;;;7.20;99.90;;;;;;5008648;28;20136;-65
2023/04/12 01:19:32;;;;;;;8.95;2.78;;;7.20;99.90;;;;;;5000749;28;20050;-66
2023/04/12 01:22:20;;;;;;;10.30;2.30;;;7.20;99.90;;;;;;5008427;28;20389;-66
2023/04/12 01:24:54;;;;;;;6.95;2.28;;;7.30;99.90;;;;;;5003279;28;20258;-66
2023/04/12 01:27:44;;;;;;;5.38;2.22;;;7.30;99.90;;;;;;5010258;28;20037;-66
2023/04/12 01:30:12;;;;;;;8.50;2.27;;;7.30;99.90;;;;;;5008843;28;20038;-66
2023/04/12 01:32:41;;;;;;;6.88;2.45;;;7.40;99.90;;;;;;4986363;28;20084;-65
2023/04/12 01:35:08;;;;;;;11.10;2.55;;;7.40;99.90;;;;;;4997929;28;20037;-66
2023/04/12 01:37:35;;;;;;;10.77;2.58;;;7.60;99.90;;;;;;5008844;28;20508;-66
2023/04/12 01:40:02;;;;;;;11.95;3.10;;;7.60;99.90;;;;;;5009919;28;20034;-65
2023/04/12 01:42:30;;;;;;;8.15;2.30;;;7.80;99.90;;;;;;5008196;28;20068;-65
2023/04/12 01:44:56;;;;;;;8.73;2.40;;;7.90;99.90;;;;;;5010540;28;20367;-66
2023/04/12 01:47:22;;;;;;;7.75;2.33;;;7.90;99.90;;;;;;5007730;28;20125;-67
2023/04/12 01:49:59;;;;;;;8.43;2.33;;;8.10;99.90;;;;;;5003759;28;20572;-65
2023/04/12 01:52:30;;;;;;;8.18;2.65;;;8.20;99.90;;;;;;5022970;28;20076;-67
2023/04/12 01:55:00;;;;;;;7.07;2.55;;;8.20;99.90;;;;;;5006517;28;20059;-64
2023/04/12 01:57:26;;;;;;;8.82;2.65;;;8.20;99.90;;;;;;5027415;28;20060;-65
2023/04/12 01:59:55;;;;;;;8.15;2.63;;;8.20;99.90;;;;;;5008869;28;20053;-65
2023/04/12 02:02:21;;;;;;;13.75;2.65;;;8.10;99.90;;;;;;5007575;28;20050;-65
2023/04/12 02:04:47;;;;;;;10.57;2.80;;;8.10;99.90;;;;;;4993622;28;20049;-66
2023/04/12 02:07:17;;;;;;;7.63;2.55;;;8.10;99.90;;;;;;5006964;28;20064;-66
2023/04/12 02:09:42;;;;;;;12.35;2.60;;;8.10;99.90;;;;;;5011672;28;20404;-66
2023/04/12 02:12:08;;;;;;;8.13;2.58;;;8.10;99.90;;;;;;5012199;28;20045;-65
2023/04/12 02:14:34;;;;;;;8.02;2.55;;;8.20;99.90;;;;;;5009610;28;20042;-65
2023/04/12 02:17:03;;;;;;;6.70;2.80;;;8.10;99.90;;;;;;5027562;28;20091;-66
2023/04/12 02:19:30;;;;;;;8.00;2.88;;;8.10;99.90;;;;;;5011387;28;20469;-66
2023/04/12 02:21:55;;;;;;;9.02;2.60;;;8.10;99.90;;;;;;5028172;28;20129;-66
2023/04/12 02:24:22;;;;;;;6.50;2.35;;;8.10;99.90;;;;;;5011579;28;20469;-66
2023/04/12 02:26:50;;;;;;;9.15;2.35;;;8.00;99.90;;;;;;5014537;28;20076;-66
2023/04/12 02:29:16;;;;;;;10.95;2.58;;;8.00;99.90;;;;;;5010852;28;20038;-66
2023/04/12 02:31:42;;;;;;;7.38;2.20;;;7.90;99.90;;;;;;5009203;28;20083;-67
2023/04/12 02:34:07;;;;;;;4.13;2.03;;;7.90;99.90;;;;;;4991942;28;20466;-66
2023/04/12 02:36:36;;;;;;;12.00;2.70;;;8.00;99.90;;;;;;5005840;28;20048;-65
2023/04/12 02:39:02;;;;;;;9.13;3.10;;;8.00;99.90;;;;;;5009007;28;20133;-66
2023/04/12 02:41:28;;;;;;;5.95;2.13;;;8.00;99.90;;;;;;5012760;28;20048;-67
2023/04/12 02:43:54;;;;;;;10.90;2.30;;;8.00;99.90;;;;;;4996098;28;20033;-65
2023/04/12 02:46:22;;;;;;;5.88;1.98;;;8.10;99.90;;;;;;5013660;28;20033;-66
2023/04/12 02:48:47;;;;;;;9.55;2.25;;;8.00;99.90;;;;;;5010626;28;20122;-65
2023/04/12 02:51:13;;;;;;;4.18;1.90;;;8.00;99.90;;;;;;5007424;28;20092;-65
2023/04/12 02:53:39;;;;;;;7.55;2.00;;;8.00;99.90;;;;;;5005206;28;21270;-67
2023/04/12 02:56:05;;;;;;;5.82;2.15;;;8.00;99.90;;;;;;5003424;28;20037;-66
2023/04/12 02:58:32;;;;;;;6.10;2.20;;;8.00;99.90;;;;;;5011923;28;20050;-67
2023/04/12 03:00:58;;;;;;;6.07;2.10;;;7.90;99.90;;;;;;5009769;28;20056;-67
2023/04/12 03:03:25;;;;;;;5.78;1.67;;;7.90;99.90;;;;;;5007966;28;20049;-66
2023/04/12 03:05:51;;;;;;;8.48;2.38;;;7.80;99.90;;;;;;5009587;28;20040;-65
2023/04/12 03:08:17;;;;;;;4.07;1.65;;;7.80;99.90;;;;;;4991178;28;20037;-66
2023/04/12 03:10:43;;;;;;;7.82;2.28;;;7.80;99.90;;;;;;5028948;28;20389;-66
2023/04/12 03:13:09;;;;;;;4.78;1.58;;;7.80;99.90;;;;;;5008336;28;20037;-65
2023/04/12 03:15:34;;;;;;;5.70;1.55;;;7.80;99.90;;;;;;5009157;28;20543;-66
2023/04/12 03:18:00;;;;;;;9.82;1.95;;;7.90;99.90;;;;;;5006955;28;20042;-66
2023/04/12 03:20:27;;;;;;;4.13;1.50;;;7.90;99.90;;;;;;4988267;28;20041;-64
2023/04/12 03:22:53;;;;;;;5.32;1.80;;;8.00;99.90;;;;;;5008299;28;20033;-65
2023/04/12 03:25:18;;;;;;;4.53;1.23;;;8.10;99.90;;;;;;5010919;28;20044;-67
2023/04/12 03:27:44;;;;;;;4.65;1.35;;;8.20;99.90;;;;;;5009594;28;20436;-66
2023/04/12 03:30:10;;;;;;;4.65;1.65;;;8.10;99.90;;;;;;5008724;28;20441;-65
2023/04/12 03:32:40;;;;;;;3.88;1.30;;;8.10;99.90;;;;;;5012690;28;20043;-65
2023/04/12 03:35:10;;;;;;;5.43;1.42;;;8.10;99.90;;;;;;5003784;28;20045;-65
2023/04/12 03:37:36;;;;;;;6.32;1.70;;;8.10;99.90;;;;;;5011050;28;20515;-65
2023/04/12 03:40:02;;;;;;;5.53;1.65;;;8.10;99.90;;;;;;5009182;28;20091;-65
2023/04/12 03:42:28;;;;;;;4.10;1.58;;;8.10;99.90;;;;;;5010761;28;20069;-66
2023/04/12 03:44:53;;;;;;;3.92;1.60;;;8.10;99.90;;;;;;5006692;28;20111;-66
2023/04/12 03:47:19;;;;;;;6.30;1.70;;;8.10;99.90;;;;;;5000275;28;20091;-67
2023/04/12 03:49:48;;;;;;;6.03;2.13;;;8.20;99.90;;;;;;4981144;28;20037;-68
2023/04/12 03:52:14;;;;;;;7.00;2.00;;;8.10;99.90;;;;;;5002070;28;20484;-65
2023/04/12 03:54:39;;;;;;;5.80;1.75;;;8.10;99.90;;;;;;4983290;28;20041;-66
2023/04/12 03:57:05;;;;;;;5.20;2.00;;;8.10;99.90;;;;;;4995995;28;20172;-67
2023/04/12 03:59:31;;;;;;;7.07;2.25;;;8.10;99.90;;;;;;5029689;28;20087;-69
2023/04/12 04:01:59;;;;;;;5.45;1.83;;;8.10;99.90;;;;;;5010790;28;20045;-66
2023/04/12 04:04:26;;;;;;;6.72;2.15;;;8.00;99.90;;;;;;5010187;28;20034;-65
2023/04/12 04:06:52;;;;;;;3.15;1.52;;;8.00;99.90;;;;;;4994156;28;20120;-65
2023/04/12 04:09:18;;;;;;;5.70;2.00;;;8.00;99.90;;;;;;5008697;28;20129;-67
2023/04/12 04:11:43;;;;;;;5.47;1.98;;;7.90;99.90;;;;;;5014237;28;20504;-68
2023/04/12 04:14:09;;;;;;;5.38;2.05;;;7.80;99.90;;;;;;5013119;28;20045;-67
2023/04/12 04:16:35;;;;;;;7.90;2.90;;;7.70;99.90;;;;;;5014899;28;20037;-68
2023/04/12 04:19:00;;;;;;;6.90;2.30;;;7.60;99.90;;;;;;5030175;28;20048;-66
2023/04/12 04:21:29;;;;;;;6.43;2.55;;;7.50;99.90;;;;;;5014295;28;20069;-64
2023/04/12 04:23:57;;;;;;;6.05;3.05;;;7.40;99.90;;;;;;5013324;28;20129;-66
2023/04/12 04:26:32;;;;;;;9.95;2.70;;;7.40;99.90;;;;;;5006657;28;20108;-67
2023/04/12 04:29:00;;;;;;;10.43;2.85;;;7.30;99.90;;;;;;5003331;28;20077;-68
2023/04/12 04:31:33;;;;;;;9.05;3.30;;;7.20;99.90;;;;;;5001898;28;20026;-66
2023/04/12 04:34:04;;;;;;;10.40;3.33;;;7.10;99.90;;;;;;5001455;28;20064;-66
2023/04/12 04:36:32;;;;;;;7.75;2.78;;;7.10;99.90;;;;;;5016430;28;20047;-66
2023/04/12 04:38:58;;;;;;;9.75;3.15;;;7.00;99.90;;;;;;5002580;28;20029;-66
2023/04/12 04:41:25;;;;;;;8.25;2.80;;;7.00;99.90;;;;;;4985503;28;20084;-70
2023/04/12 04:43:53;;;;;;;5.55;2.40;;;6.90;99.90;;;;;;4987215;28;20460;-67
2023/04/12 04:46:22;;;;;;;7.38;3.05;;;6.90;99.90;;;;;;5012528;28;20037;-69
2023/04/12 04:48:50;;;;;;;5.50;2.50;;;6.90;99.90;;;;;;5000142;28;20037;-66
2023/04/12 04:51:16;;;;;;;6.57;2.72;;;6.80;99.90;;;;;;5003303;28;20124;-67
2023/04/12 04:53:42;;;;;;;4.40;2.58;;;6.80;99.90;;;;;;4988691;28;20132;-67
2023/04/12 04:56:08;;;;;;;6.57;2.65;;;6.80;99.90;;;;;;5007413;28;20046;-67
2023/04/12 04:58:34;;;;;;;7.22;2.45;;;6.80;99.90;;;;;;4996684;28;20136;-68
2023/04/12 05:01:00;;;;;;;9.32;2.70;;;6.80;99.90;;;;;;5012491;28;20119;-68
2023/04/12 05:03:27;;;;;;;7.28;2.53;;;6.80;99.90;;;;;;5012884;28;20041;-67
2023/04/12 05:05:54;;;;;;;9.75;3.63;;;6.70;99.90;;;;;;5004073;28;20112;-66
2023/04/12 05:08:19;;;;;;;11.35;3.17;;;6.70;99.90;;;;;;5005717;28;20041;-69
2023/04/12 05:10:51;;;;;;;8.13;3.08;;;6.80;99.90;;;;;;5009969;28;20157;-67
2023/04/12 05:13:17;;;;;;;9.50;2.13;;;6.80;99.90;;;;;;5026716;28;20049;-65
2023/04/12 05:15:43;;;;;;;4.85;2.33;;;6.80;99.90;;;;;;5010319;28;20064;-65
2023/04/12 05:18:08;;;;;;;10.65;2.85;;;6.80;99.90;;;;;;5006601;28;20516;-66
2023/04/12 05:20:36;;;;;;;8.63;2.78;;;6.80;99.90;;;;;;4984759;28;20094;-68
2023/04/12 05:23:01;;;;;;;3.67;2.17;;;6.80;99.90;;;;;;5000345;28;20065;-66
2023/04/12 05:25:27;;;;;;;7.63;2.67;;;6.80;99.90;;;;;;5008661;28;20037;-65
2023/04/12 05:27:52;;;;;;;5.95;2.17;;;6.70;99.90;;;;;;4992059;28;20068;-68
2023/04/12 05:30:18;;;;;;;7.05;2.35;;;6.70;99.90;;;;;;5010535;28;20038;-69
2023/04/12 05:32:43;;;;;;;7.97;2.50;;;6.70;99.90;;;;;;5007961;28;20120;-67
2023/04/12 05:35:09;;;;;;;6.95;2.30;;;6.70;99.90;;;;;;5010359;28;20044;-66
2023/04/12 05:37:35;;;;;;;4.05;2.10;;;6.70;99.90;;;;;;4996020;28;20030;-66
2023/04/12 05:40:00;;;;;;;7.15;2.63;;;6.70;99.90;;;;;;5009535;28;20035;-69
2023/04/12 05:42:27;;;;;;;9.65;2.60;;;6.60;99.90;;;;;;4988439;28;20033;-66
2023/04/12 05:44:54;;;;;;;10.60;2.22;;;6.80;99.90;;;;;;5006568;28;20048;-67
2023/04/12 05:47:20;;;;;;;7.25;2.45;;;6.80;99.90;;;;;;4994895;28;20033;-67
2023/04/12 05:49:45;;;;;;;6.10;2.42;;;6.60;99.90;;;;;;5006635;28;20040;-66
2023/04/12 05:52:11;;;;;;;7.30;2.65;;;6.70;99.90;;;;;;4995257;28;20128;-67
2023/04/12 05:54:36;;;;;;;7.78;2.95;;;6.80;99.90;;;;;;5001270;28;20490;-67
2023/04/12 05:57:02;;;;;;;7.90;2.45;;;6.80;99.90;;;;;;5009707;28;20057;-70
2023/04/12 05:59:28;;;;;;;6.18;2.53;;;6.80;99.90;;;;;;5005454;28;20045;-67
2023/04/12 06:01:54;;;;;;;7.80;2.47;;;6.90;99.90;;;;;;5012031;28;20038;-68
2023/04/12 06:04:19;;;;;;;5.20;2.60;;;6.80;99.90;;;;;;5008193;28;20156;-69
2023/04/12 06:06:46;;;;;;;10.73;2.60;;;6.70;99.90;;;;;;5012247;28;20497;-66
2023/04/12 06:09:12;;;;;;;8.73;3.00;;;6.90;99.90;;;;;;5027977;28;20079;-68
2023/04/12 06:11:38;;;;;;;12.48;2.90;;;6.80;99.90;;;;;;5015466;28;20463;-66
2023/04/12 06:14:03;;;;;;;8.25;2.45;;;6.90;99.90;;;;;;5010931;28;20045;-66
2023/04/12 06:16:29;;;;;;;8.20;2.80;;;6.80;99.90;;;;;;5007256;28;20532;-65
2023/04/12 06:18:54;;;;;;;7.00;2.28;;;6.90;99.90;;;;;;5010946;28;20063;-67
2023/04/12 06:21:20;;;;;;;6.68;2.63;;;6.90;99.90;;;;;;5012032;28;20120;-66
2023/04/12 06:23:46;;;;;;;9.98;3.50;;;6.80;99.90;;;;;;5011955;28;20037;-67
2023/04/12 06:26:11;;;;;;;5.47;2.33;;;6.80;99.90;;;;;;4995342;28;20458;-64
2023/04/12 06:28:37;;;;;;;7.45;2.83;;;6.80;99.90;;;;;;4995936;28;20037;-67
2023/04/12 06:31:03;;;;;;;5.90;2.55;;;6.70;99.90;;;;;;4999138;28;20053;-66
2023/04/12 06:33:29;;;;;;;10.43;2.72;;;6.90;99.90;;;;;;4998079;28;20038;-65
2023/04/12 06:35:54;;;;;;;8.80;3.05;;;6.70;99.90;;;;;;4996652;28;20595;-66
2023/04/12 06:38:20;;;;;;;8.05;2.70;;;6.90;99.90;;;;;;4998615;28;20036;-65
2023/04/12 06:40:46;;;;;;;8.25;3.03;;;6.80;99.90;;;;;;5017992;28;20072;-67
2023/04/12 06:43:11;;;;;;;9.23;3.50;;;6.90;99.90;;;;;;5000743;28;22719;-65
2023/04/12 06:45:37;;;;;;;8.65;3.67;;;6.90;99.90;;;;;;4998928;28;20038;-65
2023/04/12 06:48:03;;;;;;;8.32;3.22;;;6.90;99.90;;;;;;4999431;28;20044;-64
2023/04/12 06:50:28;;;;;;;8.20;2.70;;;6.80;99.90;;;;;;5005913;28;20048;-65
2023/04/12 06:52:54;;;;;;;11.07;3.20;;;6.90;99.90;;;;;;5026683;28;20030;-64
2023/04/12 06:55:20;;;;;;;7.47;2.85;;;7.00;99.90;;;;;;4998769;28;20037;-65
2023/04/12 06:57:45;;;;;;;9.88;3.50;;;7.00;99.90;;;;;;4999606;28;20172;-66
2023/04/12 07:00:11;;;;;;;8.25;3.42;;;6.80;99.90;;;;;;5005344;28;20477;-65
2023/04/12 07:02:37;;;;;;;11.15;3.17;;;7.00;99.90;;;;;;5009422;28;20096;-65
2023/04/12 07:05:04;;;;;;;8.68;2.97;;;6.90;99.90;;;;;;5005534;28;20041;-64
2023/04/12 07:07:31;;;;;;;8.65;3.20;;;6.90;99.90;;;;;;4999614;28;20120;-63
2023/04/12 07:09:56;;;;;;;7.85;3.50;;;6.90;99.90;;;;;;5025882;28;20067;-66
2023/04/12 07:12:22;;;;;;;9.10;3.38;;;7.00;99.90;;;;;;4991099;28;20457;-67
2023/04/12 07:14:47;;;;;;;9.77;3.63;;;6.90;99.90;;;;;;5010924;28;20103;-65
2023/04/12 07:17:13;;;;;;;6.28;3.10;;;7.10;99.90;;;;;;5025101;28;20037;-65
2023/04/12 07:19:40;;;;;;;7.60;3.08;;;7.00;99.90;;;;;;5003457;28;20095;-67
2023/04/12 07:22:06;;;;;;;9.55;3.80;;;7.10;99.90;;;;;;5023726;28;20091;-67
2023/04/12 07:24:32;;;;;;;6.70;3.42;;;7.20;99.90;;;;;;5008117;28;20076;-64
2023/04/12 07:26:58;;;;;;;10.13;4.63;;;7.20;99.90;;;;;;5027759;28;20061;-66
2023/04/12 07:29:23;;;;;;;8.18;3.85;;;7.20;99.90;;;;;;4995266;28;20041;-64
2023/04/12 07:31:49;;;;;;;8.50;4.10;;;7.10;99.90;;;;;;5012103;28;20065;-66
2023/04/12 07:34:15;;;;;;;7.47;3.65;;;7.10;99.90;;;;;;4999138;28;20060;-63
2023/04/12 07:36:42;;;;;;;11.75;3.95;;;7.20;99.90;;;;;;4992434;28;20403;-64
2023/04/12 07:39:10;;;;;;;7.95;3.80;;;7.00;99.90;;;;;;4995589;28;20084;-67
2023/04/12 07:41:36;;;;;;;8.50;4.35;;;7.20;99.90;;;;;;5010083;28;20052;-65
2023/04/12 07:44:02;;;;;;;9.68;3.83;;;7.20;99.90;;;;;;5021336;28;20034;-65
2023/04/12 07:46:28;;;;;;;11.18;4.65;;;7.30;99.90;;;;;;5019662;28;20052;-64
2023/04/12 07:48:54;;;;;;;7.18;3.80;;;7.20;99.90;;;;;;5006893;28;20045;-69
2023/04/12 07:51:19;;;;;;;10.10;3.97;;;7.20;99.90;;;;;;5022336;28;20834;-66
2023/04/12 07:53:47;;;;;;;8.68;4.10;;;7.10;99.90;;;;;;4980201;28;20046;-66
2023/04/12 07:56:13;;;;;;;6.82;3.80;;;7.10;99.90;;;;;;5007020;28;20073;-67
2023/04/12 07:58:38;;;;;;;11.20;4.22;;;7.20;99.90;;;;;;5008552;28;20045;-65
2023/04/12 08:01:06;;;;;;;8.05;3.92;;;7.30;99.90;;;;;;5009075;28;20037;-68
2023/04/12 08:03:31;;;;;;;9.75;4.15;;;7.10;99.90;;;;;;5009143;28;20125;-68
2023/04/12 08:05:57;;;;;;;8.85;3.92;;;7.30;99.90;;;;;;4998748;28;20128;-66
2023/04/12 08:08:23;;;;;;;6.63;3.97;;;7.20;99.90;;;;;;5026279;28;20038;-63
2023/04/12 08:10:49;;;;;;;11.80;4.43;;;7.30;99.90;;;;;;5021047;28;20460;-66
2023/04/12 08:13:15;;;;;;;8.82;4.15;;;7.20;99.90;;;;;;5021279;28;20095;-66
2023/04/12 08:15:42;;;;;;;10.68;3.85;;;7.20;99.90;;;;;;5026180;28;20049;-65
2023/04/12 08:18:09;;;;;;;10.77;4.10;;;7.20;99.90;;;;;;5013543;28;20052;-65
2023/04/12 08:20:34;;;;;;;11.90;4.28;;;7.40;99.90;;;;;;5007820;28;20589;-65
2023/04/12 08:23:00;;;;;;;10.15;4.82;;;7.40;99.90;;;;;;5027152;28;20038;-65
2023/04/12 08:25:25;;;;;;;9.57;4.28;;;7.30;99.90;;;;;;4993169;28;20037;-65
2023/04/12 08:27:51;;;;;;;8.73;4.60;;;7.30;99.90;;;;;;5013495;28;20030;-67
2023/04/12 08:30:18;;;;;;;8.30;4.82;;;7.40;99.90;;;;;;4991462;28;20120;-65
2023/04/12 08:32:44;;;;;;;7.57;4.75;;;7.40;99.90;;;;;;5008742;28;20053;-65
2023/04/12 08:35:10;;;;;;;11.80;4.70;;;7.40;99.90;;;;;;5009938;28;20394;-66
2023/04/12 08:37:35;;;;;;;8.15;5.15;;;7.70;99.90;;;;;;5004131;28;20384;-66
2023/04/12 08:40:05;;;;;;;6.90;4.70;;;7.70;99.90;;;;;;5009878;28;20038;-64
2023/04/12 08:42:32;;;;;;;8.20;5.03;;;7.70;99.90;;;;;;5026524;28;20044;-65
2023/04/12 08:44:58;;;;;;;9.68;4.85;;;7.70;99.90;;;;;;5027262;28;20113;-65
2023/04/12 08:47:23;;;;;;;9.07;5.45;;;7.80;99.90;;;;;;5028513;28;20117;-64
2023/04/12 08:49:49;;;;;;;7.10;5.20;;;7.80;99.90;;;;;;5008120;28;20091;-64
2023/04/12 08:52:15;;;;;;;7.95;5.43;;;7.90;99.90;;;;;;5024064;28;20052;-64
2023/04/12 08:54:41;;;;;;;8.90;5.82;;;7.80;99.90;;;;;;5023754;28;20041;-67
2023/04/12 08:57:08;;;;;;;9.93;5.68;;;7.80;99.90;;;;;;5033122;28;20560;-65
2023/04/12 08:59:37;;;;;;;9.02;5.43;;;7.90;99.90;;;;;;5032030;28;20069;-65
2023/04/12 09:02:03;;;;;;;12.05;5.47;;;8.00;99.90;;;;;;5033988;28;20057;-64
2023/04/12 09:04:28;;;;;;;10.25;5.25;;;7.90;99.90;;;;;;4993431;28;20045;-65
2023/04/12 09:06:55;;;;;;;7.50;5.47;;;7.90;99.90;;;;;;5031529;28;20038;-64
2023/04/12 09:09:41;;;;;;;9.93;5.72;;;8.00;99.90;;;;;;5033583;28;20140;-66
2023/04/12 09:12:09;;;;;;;11.60;6.20;;;8.10;99.90;;;;;;5034881;28;20482;-63
2023/04/12 09:14:35;;;;;;;10.38;6.47;;;7.80;99.90;;;;;;5009888;28;20045;-65
2023/04/12 09:17:00;;;;;;;10.82;6.18;;;7.80;99.90;;;;;;5030959;28;20044;-65
2023/04/12 09:19:33;;;;;;;10.43;6.18;;;7.70;99.90;;;;;;5014178;28;20053;-64
2023/04/12 09:22:00;;;;;;;12.05;6.00;;;7.90;99.90;;;;;;5032978;28;20443;-64
2023/04/12 09:24:27;;;;;;;9.70;5.30;;;7.80;99.90;;;;;;5030535;28;20099;-65
2023/04/12 09:27:04;;;;;;;9.57;6.00;;;7.80;99.90;;;;;;5034525;28;20488;-64
2023/04/12 09:29:31;;;;;;;8.68;5.55;;;7.90;99.90;;;;;;5033372;28;20049;-63
2023/04/12 09:32:04;;;;;;;8.90;5.43;;;7.80;99.90;;;;;;5015029;28;20620;-64
2023/04/12 09:34:31;;;;;;;9.43;5.80;;;7.90;99.90;;;;;;5011042;28;20828;-64
2023/04/12 09:36:57;;;;;;;10.23;5.85;;;7.90;99.90;;;;;;5013012;28;20057;-64
2023/04/12 09:39:31;;;;;;;8.70;5.93;;;7.90;99.90;;;;;;5011592;28;20041;-65
2023/04/12 09:42:04;;;;;;;11.57;6.72;;;7.90;99.90;;;;;;5028093;28;20048;-64
2023/04/12 09:44:29;;;;;;;10.63;6.53;;;7.90;99.90;;;;;;5031000;28;20053;-64
2023/04/12 09:46:55;;;;;;;9.77;6.50;;;8.10;99.90;;;;;;5033899;28;20029;-64
2023/04/12 09:49:37;;;;;;;10.57;6.38;;;8.20;99.90;;;;;;5031079;28;20120;-64
2023/04/12 09:52:02;;;;;;;10.65;7.18;;;8.20;99.90;;;;;;5032719;28;20500;-65
2023/04/12 09:54:29;;;;;;;10.85;7.57;;;8.10;99.90;;;;;;5032379;28;20072;-65
2023/04/12 09:56:56;;;;;;;13.40;8.05;;;8.20;99.90;;;;;;5030316;28;20050;-65
2023/04/12 09:59:25;;;;;;;12.20;8.63;;;8.40;99.90;;;;;;5026652;28;20042;-65
2023/04/12 10:01:52;;;;;;;14.80;9.27;;;8.50;99.90;;;;;;5031975;28;20531;-65
2023/04/12 10:04:19;;;;;;;15.18;9.25;;;8.60;99.90;;;;;;5031179;28;20056;-64
2023/04/12 10:06:45;;;;;;;13.32;9.20;;;8.60;99.90;;;;;;5002011;28;20037;-64
2023/04/12 10:09:11;;;;;;;17.88;10.13;;;9.00;99.90;;;;;;5014526;28;20381;-64
2023/04/12 10:11:40;;;;;;;20.25;10.10;;;9.00;99.90;;;;;;5013544;28;20029;-63
2023/04/12 10:14:06;;;;;;;15.18;9.00;;;9.20;99.90;;;;;;5018367;28;20056;-63
2023/04/12 10:16:37;;;;;;;15.95;9.55;;;9.30;99.90;;;;;;5015388;28;20117;-64
2023/04/12 10:19:03;;;;;;;14.95;9.38;;;9.40;99.90;;;;;;5008025;28;21054;-64
2023/04/12 10:21:30;;;;;;;17.58;9.18;;;9.30;99.90;;;;;;5011184;28;20048;-63
2023/04/12 10:23:56;;;;;;;12.82;8.57;;;9.50;99.90;;;;;;4998990;28;20084;-63
2023/04/12 10:26:22;;;;;;;12.98;8.10;;;9.40;99.90;;;;;;5015987;28;20103;-64
2023/04/12 10:29:26;;;;;;;12.43;7.00;;;9.20;99.90;;;;;;5015743;28;20416;-64
2023/04/12 10:31:56;;;;;;;11.40;6.82;;;9.20;99.90;;;;;;5007509;28;20065;-63
2023/04/12 10:34:25;;;;;;;9.05;6.57;;;9.20;99.90;;;;;;4997234;28;20049;-64
2023/04/12 10:36:58;;;;;;;14.32;7.47;;;9.20;99.90;;;;;;5007794;28;20042;-63
2023/04/12 10:39:36;;;;;;;11.10;6.78;;;9.40;99.90;;;;;;5011400;28;20044;-63
2023/04/12 10:42:22;;;;;;;11.00;6.47;;;9.80;99.90;;;;;;5016633;28;20046;-63
2023/04/12 10:44:51;;;;;;;8.07;5.53;;;9.50;99.90;;;;;;5020560;28;20045;-64
2023/04/12 10:47:48;;;;;;;10.63;6.03;;;9.40;99.90;;;;;;5032530;28;20029;-64
2023/04/12 10:50:23;;;;;;;11.15;6.72;;;9.60;99.90;;;;;;5021536;28;20406;-64
2023/04/12 10:53:17;;;;;;;11.32;6.60;;;9.80;99.90;;;;;;5004084;28;20473;-64
2023/04/12 10:55:44;;;;;;;10.55;6.80;;;9.90;99.90;;;;;;5024504;28;20091;-64
2023/04/12 10:58:10;;;;;;;9.80;5.97;;;10.00;99.90;;;;;;5028887;28;20061;-64
2023/04/12 11:00:54;;;;;;;9.02;6.38;;;10.10;99.90;;;;;;5021588;28;20410;-64
2023/04/12 11:03:20;;;;;;;11.25;6.30;;;10.00;99.90;;;;;;5028400;28;20098;-63
2023/04/12 11:06:03;;;;;;;8.60;5.55;;;10.10;99.90;;;;;;5022380;28;20033;-64
2023/04/12 11:08:38;;;;;;;11.05;5.97;;;10.40;99.90;;;;;;4994480;28;20073;-65
2023/04/12 11:11:16;;;;;;;11.15;6.60;;;10.60;99.90;;;;;;4996554;28;20042;-64
2023/04/12 11:13:42;;;;;;;12.00;5.72;;;10.60;99.90;;;;;;5029476;28;20050;-65
2023/04/12 11:16:11;;;;;;;12.85;6.63;;;10.60;99.90;;;;;;5026480;28;20606;-64
2023/04/12 11:18:37;;;;;;;10.75;6.45;;;10.80;99.90;;;;;;5030312;28;20048;-64
2023/04/12 11:21:04;;;;;;;12.75;6.30;;;10.80;99.90;;;;;;5009704;28;20421;-63
2023/04/12 11:23:31;;;;;;;9.35;5.57;;;10.60;99.90;;;;;;5027108;28;20045;-63
2023/04/12 11:25:56;;;;;;;9.30;5.72;;;10.50;99.90;;;;;;5007618;28;20033;-64
2023/04/12 11:28:22;;;;;;;9.43;4.60;;;10.70;99.90;;;;;;5026226;28;20457;-63
2023/04/12 11:30:50;;;;;;;13.57;5.32;;;10.60;99.90;;;;;;5016138;28;20513;-64
2023/04/12 11:33:34;;;;;;;8.27;4.85;;;10.40;99.90;;;;;;5025329;28;20041;-63
2023/04/12 11:36:04;;;;;;;13.82;5.03;;;10.40;99.90;;;;;;5020462;28;20099;-62
2023/04/12 11:38:30;;;;;;;13.73;5.25;;;10.50;99.90;;;;;;5022173;28;20045;-63
2023/04/12 11:40:56;;;;;;;10.07;4.72;;;10.60;99.90;;;;;;5030717;28;20064;-64
2023/04/12 11:43:21;;;;;;;11.90;4.65;;;10.70;99.90;;;;;;5020518;28;20046;-64
2023/04/12 11:45:47;;;;;;;7.00;4.43;;;10.80;99.90;;;;;;5027845;28;21893;-63
2023/04/12 11:48:12;;;;;;;11.65;4.30;;;10.90;99.90;;;;;;5030550;28;20044;-62
2023/04/12 11:50:39;;;;;;;11.10;3.90;;;10.80;99.90;;;;;;5027817;28;20382;-65
2023/04/12 11:53:16;;;;;;;12.27;4.13;;;10.60;99.90;;;;;;5025454;28;20597;-64
2023/04/12 11:55:47;;;;;;;9.25;4.00;;;10.50;99.90;;;;;;5019274;28;20068;-64
2023/04/12 11:58:12;;;;;;;11.43;4.38;;;10.40;99.90;;;;;;5026900;28;20053;-65
2023/04/12 12:00:41;;;;;;;10.80;4.13;;;10.60;99.90;;;;;;5026223;28;20095;-66
2023/04/12 12:03:06;;;;;;;9.30;4.03;;;10.80;99.90;;;;;;4992201;28;20050;-66
2023/04/12 12:05:35;;;;;;;12.75;3.20;;;11.00;99.90;;;;;;5016898;28;20041;-67
2023/04/12 12:08:06;;;;;;;12.40;3.75;;;10.50;99.90;;;;;;4988967;28;20037;-65
2023/04/12 12:10:35;;;;;;;9.60;3.92;;;11.00;99.90;;;;;;5011803;28;20041;-64
2023/04/12 12:13:00;;;;;;;8.95;3.47;;;11.30;99.90;;;;;;5023803;28;20387;-66
2023/04/12 12:15:30;;;;;;;8.68;3.17;;;11.50;99.90;;;;;;4988252;28;20042;-65
2023/04/12 12:17:56;;;;;;;10.33;3.23;;;11.70;99.90;;;;;;5022898;28;20092;-67
2023/04/12 12:20:23;;;;;;;8.38;3.35;;;11.70;99.90;;;;;;5008356;28;20053;-67
2023/04/12 12:22:49;;;;;;;8.48;2.80;;;11.90;99.90;;;;;;5011979;28;20040;-65
2023/04/12 12:25:17;;;;;;;10.68;3.00;;;11.60;99.90;;;;;;5014574;28;20073;-65
2023/04/12 12:27:47;;;;;;;9.13;2.65;;;11.80;99.90;;;;;;5012574;28;20539;-67
2023/04/12 12:30:15;;;;;;;7.22;2.70;;;11.80;99.90;;;;;;5014802;28;20565;-65
2023/04/12 12:32:42;;;;;;;8.32;2.20;;;11.90;99.90;;;;;;5015787;28;20354;-67
2023/04/12 12:35:09;;;;;;;14.85;2.60;;;12.10;99.90;;;;;;5030310;28;20076;-66
2023/04/12 12:37:35;;;;;;;10.40;2.03;;;12.10;99.90;;;;;;5010148;28;20116;-64
2023/04/12 12:40:12;;;;;;;6.63;2.00;;;12.30;99.90;;;;;;5029170;28;20933;-67
2023/04/12 12:42:47;;;;;;;15.13;2.50;;;12.50;99.90;;;;;;5032494;28;20045;-68
2023/04/12 12:45:14;;;;;;;10.32;2.03;;;12.20;99.90;;;;;;5011440;28;20470;-65
2023/04/12 12:47:50;;;;;;;10.05;2.20;;;12.30;99.90;;;;;;5013663;28;20126;-66
2023/04/12 12:50:18;;;;;;;10.30;1.98;;;12.50;99.90;;;;;;5018224;28;20549;-65
2023/04/12 12:52:45;;;;;;;8.00;1.90;;;12.40;99.90;;;;;;5013364;28;20068;-66
2023/04/12 12:55:14;;;;;;;8.10;2.55;;;12.30;99.90;;;;;;5021217;28;20041;-66
2023/04/12 12:57:45;;;;;;;10.77;2.47;;;12.40;99.90;;;;;;5008344;28;20057;-65